Time;durP1;ratioP1;P1;durP2;ratioP2;P2;SDS_P1;SDS_P2;PMS_P1;PMS_P2;Temp;Humidity;BMP_temperature;BMP_pressure;BME280_temperature;BME280_humidity;BME280_pressure;Samples;Min_cycle;Max_cycle;Signal;HPM_P1;HPM_P2
2023/05/30 00:04:42;;;;;;;10.60;2.17;;;;;11.30;102012.00;;;;10526519;28;20227;-76
2023/05/30 00:09:44;;;;;;;10.40;2.30;;;;;11.20;102018.00;;;;10492558;28;20288;-72
2023/05/30 00:14:47;;;;;;;14.27;2.40;;;;;11.20;102011.00;;;;10497566;28;20614;-79
2023/05/30 00:19:48;;;;;;;12.77;3.10;;;;;11.10;102013.00;;;;10478918;28;20266;-80
2023/05/30 00:24:51;;;;;;;9.93;2.30;;;;;11.10;102016.00;;;;10452794;28;20282;-73
2023/05/30 00:29:52;;;;;;;11.70;2.23;;;;;11.10;102025.00;;;;10478900;28;20662;-75
2023/05/30 00:34:54;;;;;;;14.07;3.87;;;;;11.00;102015.00;;;;10436634;28;20891;-77
2023/05/30 00:39:55;;;;;;;7.87;2.23;;;;;11.00;102028.00;;;;10456907;28;20213;-75
2023/05/30 00:44:56;;;;;;;10.27;2.57;;;;;11.00;102024.00;;;;10471279;28;20193;-73
2023/05/30 00:49:58;;;;;;;9.47;2.67;;;;;10.90;102022.00;;;;10472600;28;20193;-76
2023/05/30 00:55:03;;;;;;;11.47;3.00;;;;;10.90;102018.00;;;;10478063;28;20209;-74
2023/05/30 01:00:06;;;;;;;10.50;2.53;;;;;10.80;102020.00;;;;10472507;28;20206;-77
2023/05/30 01:05:07;;;;;;;16.53;3.57;;;;;10.80;102019.00;;;;10464696;28;20244;-73
2023/05/30 01:10:15;;;;;;;11.03;2.80;;;;;10.70;102032.00;;;;10477604;28;20661;-74
2023/05/30 01:15:26;;;;;;;9.73;2.60;;;;;10.70;102036.00;;;;10490516;28;20197;-76
2023/05/30 01:20:32;;;;;;;12.97;2.77;;;;;10.60;102034.00;;;;10483035;28;20628;-75
2023/05/30 01:26:00;;;;;;;14.83;2.90;;;;;10.60;102040.00;;;;10500953;28;20199;-72
2023/05/30 01:31:02;;;;;;;7.63;2.30;;;;;10.50;102034.00;;;;10479423;28;20209;-72
2023/05/30 01:36:04;;;;;;;16.03;2.87;;;;;10.40;102050.00;;;;10504763;28;20288;-76
2023/05/30 01:41:30;;;;;;;10.90;2.60;;;;;10.40;102045.00;;;;10504641;28;20240;-76
2023/05/30 01:46:33;;;;;;;14.40;2.87;;;;;10.30;102044.00;;;;10490881;28;20701;-76
2023/05/30 01:51:38;;;;;;;12.10;2.50;;;;;10.20;102050.00;;;;10512946;28;20254;-76
2023/05/30 01:56:40;;;;;;;11.30;2.57;;;;;10.20;102050.00;;;;10471628;28;20284;-76
2023/05/30 02:01:43;;;;;;;10.47;2.70;;;;;10.10;102051.00;;;;10503839;28;20248;-73
2023/05/30 02:06:45;;;;;;;12.60;3.10;;;;;10.00;102050.00;;;;10525052;28;20208;-76
2023/05/30 02:11:46;;;;;;;11.23;2.90;;;;;9.90;102050.00;;;;10509117;28;20291;-73
2023/05/30 02:16:48;;;;;;;10.50;3.80;;;;;9.90;102058.00;;;;10489124;28;20288;-75
2023/05/30 02:21:51;;;;;;;11.70;2.27;;;;;9.90;102057.00;;;;10485085;28;20221;-81
2023/05/30 02:26:53;;;;;;;10.17;2.47;;;;;9.80;102061.00;;;;10505902;28;20658;-81
2023/05/30 02:31:55;;;;;;;8.00;3.13;;;;;9.70;102064.00;;;;10526296;28;20258;-73
2023/05/30 02:37:00;;;;;;;14.40;3.33;;;;;9.70;102058.00;;;;10495741;28;20201;-75
2023/05/30 02:42:01;;;;;;;10.20;2.80;;;;;9.60;102047.00;;;;10506089;28;20232;-74
2023/05/30 02:47:03;;;;;;;20.07;3.90;;;;;9.60;102060.00;;;;10492570;28;20204;-77
2023/05/30 02:52:06;;;;;;;10.47;2.50;;;;;9.60;102062.00;;;;10544165;28;20189;-76
2023/05/30 02:57:16;;;;;;;11.80;4.13;;;;;9.50;102070.00;;;;10521949;28;20198;-72
2023/05/30 03:02:37;;;;;;;10.83;2.70;;;;;9.50;102079.00;;;;10467762;28;20224;-73
2023/05/30 03:07:44;;;;;;;17.67;3.80;;;;;9.50;102071.00;;;;10484178;28;20204;-75
2023/05/30 03:12:46;;;;;;;15.43;3.27;;;;;9.40;102075.00;;;;10461382;28;20228;-74
2023/05/30 03:17:47;;;;;;;13.93;2.87;;;;;9.40;102074.00;;;;10508643;28;20287;-75
2023/05/30 03:22:49;;;;;;;15.83;3.00;;;;;9.30;102088.00;;;;10495144;28;20227;-80
2023/05/30 03:27:51;;;;;;;17.87;3.63;;;;;9.30;102083.00;;;;10476389;28;20540;-80
2023/05/30 03:32:56;;;;;;;16.47;3.73;;;;;9.30;102084.00;;;;10499067;28;20337;-81
2023/05/30 03:37:58;;;;;;;16.80;3.43;;;;;9.20;102087.00;;;;10502137;28;20216;-73
2023/05/30 03:42:59;;;;;;;16.57;3.30;;;;;9.20;102101.00;;;;10487637;28;20225;-80
2023/05/30 03:48:01;;;;;;;16.73;3.10;;;;;9.20;102092.00;;;;10518603;28;20201;-73
2023/05/30 03:53:02;;;;;;;16.13;4.17;;;;;9.30;102106.00;;;;10492496;28;20321;-81
2023/05/30 03:58:04;;;;;;;12.37;3.40;;;;;9.30;102102.00;;;;10501267;28;20204;-79
2023/05/30 04:03:05;;;;;;;13.63;3.73;;;;;9.40;102116.00;;;;10530212;28;20299;-73
2023/05/30 04:08:07;;;;;;;11.60;3.13;;;;;9.50;102111.00;;;;10502253;28;20288;-74
2023/05/30 04:13:09;;;;;;;12.53;3.87;;;;;9.60;102112.00;;;;10490992;28;20236;-73
2023/05/30 04:18:10;;;;;;;9.93;3.13;;;;;9.80;102126.00;;;;10489415;28;20262;-79
2023/05/30 04:23:12;;;;;;;17.40;3.90;;;;;9.90;102118.00;;;;10484122;28;20255;-80
2023/05/30 04:28:17;;;;;;;19.07;5.13;;;;;9.80;102120.00;;;;10479329;28;20205;-74
2023/05/30 04:33:19;;;;;;;18.87;3.53;;;;;9.90;102133.00;;;;10466995;28;20614;-81
2023/05/30 04:38:21;;;;;;;20.33;4.80;;;;;10.00;102132.00;;;;10493952;28;20232;-76
2023/05/30 04:43:24;;;;;;;15.30;3.60;;;;;10.20;102142.00;;;;10489021;28;20214;-73
2023/05/30 04:48:28;;;;;;;14.77;4.07;;;;;10.40;102145.00;;;;10501820;28;20225;-74
2023/05/30 04:53:30;;;;;;;18.47;4.60;;;;;10.60;102136.00;;;;10529273;28;20220;-76
2023/05/30 04:58:31;;;;;;;16.70;4.83;;;;;10.90;102139.00;;;;10466638;28;20220;-80
2023/05/30 05:03:32;;;;;;;18.83;4.50;;;;;11.10;102137.00;;;;10458359;28;20216;-81
2023/05/30 05:08:35;;;;;;;17.37;4.60;;;;;11.40;102134.00;;;;10446569;28;20197;-75
2023/05/30 05:13:36;;;;;;;17.33;4.60;;;;;11.90;102141.00;;;;10475436;28;21854;-75
2023/05/30 05:18:37;;;;;;;11.90;4.00;;;;;12.20;102145.00;;;;10470066;28;20251;-72
2023/05/30 05:23:39;;;;;;;19.43;5.17;;;;;12.50;102142.00;;;;10488068;28;20244;-81
2023/05/30 05:28:40;;;;;;;15.20;4.80;;;;;12.70;102142.00;;;;10497601;28;20204;-76
2023/05/30 05:33:42;;;;;;;19.23;4.33;;;;;13.00;102158.00;;;;10525269;28;20213;-74
2023/05/30 05:38:43;;;;;;;12.80;3.37;;;;;13.30;102147.00;;;;10529417;28;20235;-75
2023/05/30 05:43:44;;;;;;;13.27;4.80;;;;;13.50;102152.00;;;;10547256;28;20220;-76
2023/05/30 05:48:46;;;;;;;13.53;4.30;;;;;13.70;102142.00;;;;10512640;28;20200;-80
2023/05/30 05:53:47;;;;;;;19.30;4.87;;;;;14.20;102149.00;;;;10481053;28;20231;-81
2023/05/30 05:58:48;;;;;;;19.80;4.10;;;;;14.50;102158.00;;;;10484769;28;20200;-78
2023/05/30 06:03:50;;;;;;;11.50;4.50;;;;;14.50;102154.00;;;;10467886;28;20946;-79
2023/05/30 06:08:51;;;;;;;16.37;4.30;;;;;14.60;102158.00;;;;10462646;28;20197;-75
2023/05/30 06:13:53;;;;;;;20.23;4.60;;;;;14.40;102163.00;;;;10428205;28;20208;-76
2023/05/30 06:18:54;;;;;;;16.80;5.03;;;;;14.50;102156.00;;;;10491605;28;20231;-78
2023/05/30 06:23:55;;;;;;;13.67;4.40;;;;;14.50;102163.00;;;;10476345;28;20204;-75
2023/05/30 06:28:57;;;;;;;11.57;4.07;;;;;14.80;102161.00;;;;10491553;28;20539;-76
2023/05/30 06:33:58;;;;;;;11.90;3.90;;;;;15.20;102171.00;;;;10492795;28;20208;-77
2023/05/30 06:39:00;;;;;;;12.67;4.30;;;;;16.10;102169.00;;;;10474164;28;20235;-81
2023/05/30 06:44:01;;;;;;;11.80;3.90;;;;;16.70;102169.00;;;;10425314;28;20236;-78
2023/05/30 06:49:03;;;;;;;16.85;4.70;;;;;17.00;102180.00;;;;10444041;28;20201;-79
2023/05/30 06:54:04;;;;;;;10.95;4.25;;;;;17.00;102186.00;;;;10487862;28;20272;-77
2023/05/30 06:59:06;;;;;;;13.05;3.95;;;;;17.20;102189.00;;;;10469610;28;20212;-77
2023/05/30 07:04:07;;;;;;;15.38;4.97;;;;;17.40;102185.00;;;;10460519;28;20222;-78
2023/05/30 07:09:08;;;;;;;16.27;4.40;;;;;18.30;102188.00;;;;10509707;28;20228;-79
2023/05/30 07:14:11;;;;;;;14.57;4.28;;;;;18.60;102198.00;;;;10519091;28;20674;-82
2023/05/30 07:19:12;;;;;;;13.27;4.28;;;;;17.90;102192.00;;;;10500571;28;20251;-80
2023/05/30 07:24:14;;;;;;;12.77;4.32;;;;;17.90;102190.00;;;;10478915;28;20676;-82
2023/05/30 07:29:16;;;;;;;17.30;4.90;;;;;18.60;102196.00;;;;10482231;28;20208;-76
2023/05/30 07:34:18;;;;;;;13.45;4.70;;;;;19.00;102193.00;;;;10444431;28;20193;-71
2023/05/30 07:39:19;;;;;;;14.05;4.45;;;;;19.40;102195.00;;;;10453355;28;20618;-72
2023/05/30 07:44:21;;;;;;;10.07;4.10;;;;;19.70;102196.00;;;;10449806;28;20216;-71
2023/05/30 07:49:23;;;;;;;9.15;4.32;;;;;19.60;102198.00;;;;10417896;28;20342;-73
2023/05/30 07:54:24;;;;;;;14.23;4.95;;;;;19.90;102195.00;;;;10472106;28;20289;-78
2023/05/30 07:59:25;;;;;;;8.27;3.88;;;;;20.30;102185.00;;;;10428298;28;20267;-76
2023/05/30 08:04:27;;;;;;;10.88;4.30;;;;;20.80;102189.00;;;;10471597;28;20231;-75
2023/05/30 08:09:29;;;;;;;12.57;3.80;;;;;21.20;102189.00;;;;10493179;28;20662;-74
2023/05/30 08:14:31;;;;;;;13.40;3.95;;;;;21.50;102186.00;;;;10485821;28;20216;-77
2023/05/30 08:19:32;;;;;;;13.05;4.20;;;;;21.60;102176.00;;;;10495166;28;20247;-74
2023/05/30 08:24:35;;;;;;;12.10;4.30;;;;;21.80;102183.00;;;;10471135;28;20205;-75
2023/05/30 08:29:38;;;;;;;12.55;3.90;;;;;21.80;102175.00;;;;10455642;28;20209;-74
2023/05/30 08:34:39;;;;;;;14.38;4.00;;;;;22.30;102174.00;;;;10488982;28;20208;-75
2023/05/30 08:39:40;;;;;;;9.63;3.55;;;;;22.70;102166.00;;;;10396183;28;20221;-73
2023/05/30 08:44:42;;;;;;;10.30;4.75;;;;;22.80;102166.00;;;;10441325;28;20202;-71
2023/05/30 08:49:46;;;;;;;11.98;4.30;;;;;22.90;102160.00;;;;10495835;28;20686;-71
2023/05/30 08:55:05;;;;;;;12.80;4.07;;;;;23.00;102152.00;;;;10492834;28;20224;-75
2023/05/30 09:00:09;;;;;;;9.90;3.95;;;;;23.20;102151.00;;;;10466409;28;20202;-71
2023/05/30 09:05:14;;;;;;;11.32;3.95;;;;;23.30;102139.00;;;;10461090;28;21750;-75
2023/05/30 09:10:15;;;;;;;10.93;3.83;;;;;23.30;102155.00;;;;10477782;28;20217;-72
2023/05/30 09:15:17;;;;;;;10.82;4.53;;;;;23.60;102142.00;;;;10416958;28;20204;-76
2023/05/30 09:20:20;;;;;;;12.00;4.03;;;;;23.80;102146.00;;;;10390157;28;20226;-74
2023/05/30 09:25:21;;;;;;;15.07;4.30;;;;;24.30;102148.00;;;;10390166;28;20205;-75
2023/05/30 09:30:23;;;;;;;11.05;4.57;;;;;24.40;102143.00;;;;10390181;28;20222;-74
2023/05/30 09:35:25;;;;;;;10.10;4.50;;;;;24.40;102132.00;;;;10389845;28;20763;-75
2023/05/30 09:40:26;;;;;;;8.43;4.20;;;;;24.40;102120.00;;;;10377666;28;21388;-75
2023/05/30 09:45:27;;;;;;;10.82;4.57;;;;;24.80;102127.00;;;;10368737;28;20532;-75
2023/05/30 09:50:29;;;;;;;11.13;5.18;;;;;25.00;102126.00;;;;10375234;28;20514;-75
2023/05/30 09:55:31;;;;;;;9.63;4.55;;;;;24.80;102127.00;;;;10385412;28;20586;-75
2023/05/30 10:00:32;;;;;;;11.70;4.93;;;;;24.60;102125.00;;;;10388135;28;20424;-74
2023/05/30 10:05:36;;;;;;;8.50;5.18;;;;;24.60;102134.00;;;;10389413;28;20227;-75
2023/05/30 10:10:41;;;;;;;8.55;5.03;;;;;25.00;102132.00;;;;10385385;28;21081;-75
2023/05/30 10:15:43;;;;;;;11.30;5.13;;;;;25.20;102114.00;;;;10368960;28;20200;-76
2023/05/30 10:20:46;;;;;;;9.85;5.10;;;;;25.50;102119.00;;;;10457540;28;20249;-71
2023/05/30 10:25:51;;;;;;;11.05;4.82;;;;;25.40;102108.00;;;;10461353;28;20671;-71
2023/05/30 10:30:53;;;;;;;11.73;5.68;;;;;25.90;102108.00;;;;10480179;28;21511;-71
2023/05/30 10:35:54;;;;;;;8.50;4.57;;;;;26.10;102109.00;;;;10456520;28;20852;-76
2023/05/30 10:41:09;;;;;;;9.80;5.80;;;;;26.50;102108.00;;;;10387889;28;20217;-76
2023/05/30 10:46:42;;;;;;;7.40;4.72;;;;;26.40;102098.00;;;;10380505;28;20318;-74
2023/05/30 10:51:57;;;;;;;10.88;4.82;;;;;26.40;102105.00;;;;10384929;28;20395;-76
2023/05/30 10:57:00;;;;;;;9.85;5.68;;;;;26.70;102097.00;;;;10370586;28;20998;-75
2023/05/30 11:02:05;;;;;;;8.80;5.70;;;;;26.90;102099.00;;;;10364113;28;20251;-75
2023/05/30 11:07:06;;;;;;;9.52;5.38;;;;;26.80;102094.00;;;;10367595;28;20947;-76
2023/05/30 11:12:12;;;;;;;9.45;5.85;;;;;26.50;102103.00;;;;10386268;28;21692;-74
2023/05/30 11:17:14;;;;;;;7.97;5.65;;;;;27.00;102076.00;;;;10371163;28;20560;-75
2023/05/30 11:22:17;;;;;;;7.32;5.22;;;;;27.50;102083.00;;;;10419445;28;1146559;-71
2023/05/30 11:27:19;;;;;;;12.82;5.72;;;;;27.20;102075.00;;;;10533293;28;20185;-71
2023/05/30 11:32:23;;;;;;;10.45;6.50;;;;;27.00;102070.00;;;;10536157;28;20246;-71
2023/05/30 11:37:25;;;;;;;8.50;5.78;;;;;27.20;102061.00;;;;10519944;28;20296;-72
2023/05/30 11:42:29;;;;;;;14.80;6.20;;;;;27.90;102058.00;;;;10513774;28;20472;-72
2023/05/30 11:47:32;;;;;;;10.70;6.97;;;;;27.50;102050.00;;;;10525721;28;20185;-72
2023/05/30 11:52:47;;;;;;;10.63;6.90;;;;;27.80;102042.00;;;;10524821;28;20232;-77
2023/05/30 11:57:49;;;;;;;13.48;6.68;;;;;27.90;102046.00;;;;10522889;28;20280;-77
2023/05/30 12:02:52;;;;;;;13.25;6.30;;;;;27.70;102041.00;;;;10516740;28;20205;-77
2023/05/30 12:07:54;;;;;;;8.55;6.18;;;;;28.30;102040.00;;;;10512667;28;20200;-74
2023/05/30 12:12:58;;;;;;;10.68;6.00;;;;;28.60;102035.00;;;;10512826;28;20284;-74
2023/05/30 12:18:01;;;;;;;9.05;5.35;;;;;28.70;102039.00;;;;10525472;28;20203;-74
2023/05/30 12:23:05;;;;;;;8.00;5.28;;;;;28.80;102042.00;;;;10524186;28;20220;-74
2023/05/30 12:28:12;;;;;;;11.98;5.70;;;;;28.60;102026.00;;;;10497653;28;20196;-74
2023/05/30 12:33:15;;;;;;;10.15;5.45;;;;;28.40;102017.00;;;;10514378;28;20655;-74
2023/05/30 12:38:18;;;;;;;9.57;5.38;;;;;27.90;102025.00;;;;10518117;28;20254;-74
2023/05/30 12:43:28;;;;;;;9.30;4.57;;;;;27.10;102024.00;;;;10515674;28;20206;-74
2023/05/30 12:48:30;;;;;;;9.45;5.25;;;;;27.60;102011.00;;;;10520032;28;20586;-74
2023/05/30 12:53:32;;;;;;;11.15;6.43;;;;;27.90;102027.00;;;;10516744;28;20193;-74
2023/05/30 12:58:34;;;;;;;10.18;6.53;;;;;27.80;102017.00;;;;10512849;28;20211;-74
2023/05/30 13:03:36;;;;;;;11.07;6.95;;;;;27.90;102006.00;;;;10510854;28;20228;-75
2023/05/30 13:08:38;;;;;;;11.40;5.07;;;;;28.10;102003.00;;;;10515840;28;20196;-74
2023/05/30 13:13:40;;;;;;;9.88;4.93;;;;;28.00;101997.00;;;;10511863;28;20272;-74
2023/05/30 13:18:42;;;;;;;12.65;5.47;;;;;27.80;101991.00;;;;10530591;28;20268;-74
2023/05/30 13:23:44;;;;;;;10.45;5.20;;;;;27.70;102001.00;;;;10514498;28;20319;-74
2023/05/30 13:28:47;;;;;;;7.82;5.28;;;;;28.00;101989.00;;;;10498474;28;20254;-74
2023/05/30 13:33:49;;;;;;;16.02;6.22;;;;;28.50;101985.00;;;;10491560;28;20275;-75
2023/05/30 13:38:56;;;;;;;11.57;6.53;;;;;27.70;101976.00;;;;10491297;28;20197;-76
2023/05/30 13:43:58;;;;;;;11.77;5.38;;;;;27.30;101968.00;;;;10483987;28;20680;-74
2023/05/30 13:49:04;;;;;;;11.35;5.47;;;;;27.40;101965.00;;;;10478588;28;20209;-75
2023/05/30 13:54:06;;;;;;;9.52;4.75;;;;;27.70;101974.00;;;;10488074;28;20255;-75
2023/05/30 13:59:08;;;;;;;9.43;4.95;;;;;27.80;101963.00;;;;10497354;28;20193;-76
2023/05/30 14:04:10;;;;;;;7.65;3.80;;;;;27.80;101956.00;;;;10500563;28;20225;-74
2023/05/30 14:09:13;;;;;;;8.00;4.68;;;;;27.80;101944.00;;;;10493928;28;20190;-74
2023/05/30 14:14:16;;;;;;;16.55;5.30;;;;;27.50;101947.00;;;;10494288;28;20497;-74
2023/05/30 14:19:18;;;;;;;7.20;4.43;;;;;27.30;101948.00;;;;10494101;28;20233;-77
2023/05/30 14:24:20;;;;;;;11.02;4.93;;;;;27.50;101947.00;;;;10497452;28;20225;-75
2023/05/30 14:29:22;;;;;;;7.68;4.35;;;;;27.70;101929.00;;;;10484873;28;20201;-75
2023/05/30 14:34:25;;;;;;;9.30;5.00;;;;;27.60;101930.00;;;;10498522;28;20559;-75
2023/05/30 14:39:29;;;;;;;9.75;4.93;;;;;28.00;101936.00;;;;10488409;28;20993;-75
2023/05/30 14:44:31;;;;;;;12.07;5.35;;;;;28.30;101920.00;;;;10470360;28;20638;-76
2023/05/30 14:49:33;;;;;;;9.50;4.70;;;;;29.20;101913.00;;;;10456487;28;20334;-75
2023/05/30 14:54:35;;;;;;;9.63;5.53;;;;;30.20;101900.00;;;;10487655;28;20674;-75
2023/05/30 14:59:38;;;;;;;9.70;5.00;;;;;31.00;101898.00;;;;10498888;28;20193;-77
2023/05/30 15:04:40;;;;;;;6.95;4.30;;;;;32.10;101893.00;;;;10493383;28;20598;-77
2023/05/30 15:09:42;;;;;;;14.57;4.97;;;;;33.00;101899.00;;;;10489302;28;20197;-78
2023/05/30 15:14:44;;;;;;;12.45;5.53;;;;;33.80;101900.00;;;;10467905;28;20213;-78
2023/05/30 15:19:47;;;;;;;13.00;5.07;;;;;34.30;101913.00;;;;10489868;28;20236;-78
2023/05/30 15:24:48;;;;;;;7.15;3.88;;;;;34.60;101889.00;;;;10490040;28;20209;-80
2023/05/30 15:29:51;;;;;;;8.52;5.40;;;;;32.00;101896.00;;;;10485258;28;20193;-81
2023/05/30 15:34:53;;;;;;;9.13;4.65;;;;;29.60;101886.00;;;;10478976;28;20713;-79
2023/05/30 15:39:55;;;;;;;11.73;4.72;;;;;28.00;101883.00;;;;10481574;28;20208;-79
2023/05/30 15:44:58;;;;;;;9.57;4.78;;;;;27.60;101883.00;;;;10479630;28;20252;-79
2023/05/30 15:50:00;;;;;;;8.27;4.30;;;;;25.90;101880.00;;;;10494523;28;20244;-74
2023/05/30 15:55:03;;;;;;;12.23;5.53;;;;;25.00;101871.00;;;;10502423;28;20197;-83
2023/05/30 16:00:10;;;;;;;11.63;4.70;;;;;24.40;101869.00;;;;10501638;28;20211;-83
2023/05/30 16:05:13;;;;;;;12.40;5.53;;;;;24.20;101865.00;;;;10517552;28;20193;-75
2023/05/30 16:10:15;;;;;;;9.15;4.25;;;;;23.80;101857.00;;;;10499980;28;20216;-75
2023/05/30 16:15:17;;;;;;;8.40;4.90;;;;;23.60;101856.00;;;;10501808;28;20223;-80
2023/05/30 16:20:19;;;;;;;9.60;3.78;;;;;23.40;101850.00;;;;10499743;28;20209;-80
2023/05/30 16:25:21;;;;;;;10.63;4.72;;;;;23.30;101845.00;;;;10500547;28;20277;-79
2023/05/30 16:30:23;;;;;;;7.55;4.47;;;;;23.10;101837.00;;;;10500290;28;20243;-79
2023/05/30 16:35:26;;;;;;;9.95;4.63;;;;;22.90;101847.00;;;;10500115;28;20193;-79
2023/05/30 16:40:28;;;;;;;13.45;4.38;;;;;22.90;101842.00;;;;10499414;28;20255;-80
2023/05/30 16:45:31;;;;;;;11.95;5.25;;;;;22.90;101842.00;;;;10500456;28;20598;-79
2023/05/30 16:50:33;;;;;;;9.43;4.90;;;;;22.50;101851.00;;;;10500088;28;20194;-79
2023/05/30 16:55:35;;;;;;;13.98;5.85;;;;;22.30;101848.00;;;;10500832;28;20254;-82
2023/05/30 17:00:37;;;;;;;11.18;6.30;;;;;22.00;101850.00;;;;10500553;28;20205;-80
2023/05/30 17:05:39;;;;;;;10.02;5.30;;;;;21.80;101846.00;;;;10499162;28;20225;-75
2023/05/30 17:10:41;;;;;;;9.50;5.97;;;;;21.60;101838.00;;;;10498628;28;20232;-78
2023/05/30 17:15:44;;;;;;;8.70;5.88;;;;;21.60;101845.00;;;;10515849;28;20227;-75
2023/05/30 17:20:46;;;;;;;9.88;5.55;;;;;21.40;101838.00;;;;10482766;28;20201;-80
2023/05/30 17:25:49;;;;;;;10.25;6.68;;;;;21.10;101854.00;;;;10481323;28;20207;-80
2023/05/30 17:31:03;;;;;;;9.70;6.40;;;;;20.90;101853.00;;;;10499990;28;20196;-80
2023/05/30 17:36:06;;;;;;;8.40;6.25;;;;;20.70;101849.00;;;;10507431;28;20193;-79
2023/05/30 17:41:08;;;;;;;10.25;5.93;;;;;20.60;101832.00;;;;10508307;28;20220;-78
2023/05/30 17:46:11;;;;;;;10.25;5.78;;;;;20.50;101853.00;;;;10490623;28;20229;-79
2023/05/30 17:51:13;;;;;;;9.07;6.60;;;;;20.40;101855.00;;;;10505772;28;20189;-76
2023/05/30 17:56:15;;;;;;;10.05;5.93;;;;;20.10;101861.00;;;;10508070;28;20201;-79
2023/05/30 18:01:17;;;;;;;7.65;5.72;;;;;20.00;101863.00;;;;10507073;28;20221;-73
2023/05/30 18:06:19;;;;;;;7.75;5.90;;;;;19.90;101858.00;;;;10505060;28;20190;-80
2023/05/30 18:11:25;;;;;;;10.45;6.30;;;;;19.70;101860.00;;;;10506607;28;20243;-79
2023/05/30 18:16:27;;;;;;;7.60;6.20;;;;;19.50;101848.00;;;;10506706;28;20642;-73
2023/05/30 18:21:29;;;;;;;5.85;5.28;;;;;19.30;101850.00;;;;10506341;28;20267;-72
2023/05/30 18:26:32;;;;;;;8.82;5.88;;;;;19.20;101855.00;;;;10505091;28;20202;-73
2023/05/30 18:31:34;;;;;;;7.50;5.55;;;;;19.10;101858.00;;;;10505263;28;20202;-73
2023/05/30 18:36:36;;;;;;;8.35;6.00;;;;;19.00;101869.00;;;;10505934;28;20231;-75
2023/05/30 18:41:38;;;;;;;9.43;5.43;;;;;18.90;101870.00;;;;10505392;28;20307;-80
2023/05/30 18:46:41;;;;;;;6.10;5.47;;;;;18.70;101862.00;;;;10505649;28;20200;-73
2023/05/30 18:51:43;;;;;;;8.27;5.55;;;;;18.50;101863.00;;;;10519944;28;20185;-75
2023/05/30 18:56:45;;;;;;;8.73;5.65;;;;;18.40;101862.00;;;;10505364;28;20204;-74
2023/05/30 19:01:47;;;;;;;10.02;5.88;;;;;18.20;101870.00;;;;10504674;28;20217;-74
2023/05/30 19:06:55;;;;;;;8.80;6.38;;;;;18.00;101876.00;;;;10486730;28;20694;-74
2023/05/30 19:11:58;;;;;;;10.43;6.00;;;;;17.90;101865.00;;;;10487224;28;20205;-75
2023/05/30 19:17:00;;;;;;;6.95;6.20;;;;;17.70;101876.00;;;;10503471;28;20566;-75
2023/05/30 19:22:02;;;;;;;11.38;6.30;;;;;17.50;101882.00;;;;10503913;28;20217;-74
2023/05/30 19:27:05;;;;;;;8.88;5.78;;;;;17.30;101881.00;;;;10502937;28;20284;-75
2023/05/30 19:32:07;;;;;;;9.85;6.15;;;;;17.10;101883.00;;;;10503255;28;20543;-79
2023/05/30 19:37:09;;;;;;;11.15;6.50;;;;;16.90;101886.00;;;;10502730;28;20220;-72
2023/05/30 19:42:11;;;;;;;7.15;6.07;;;;;16.70;101891.00;;;;10502868;28;20230;-78
2023/05/30 19:47:13;;;;;;;10.27;6.28;;;;;16.50;101881.00;;;;10502735;28;20280;-74
2023/05/30 19:52:15;;;;;;;9.25;6.03;;;;;16.40;101890.00;;;;10498848;28;20254;-75
2023/05/30 19:57:17;;;;;;;10.20;6.15;;;;;16.30;101900.00;;;;10501453;28;20190;-72
2023/05/30 20:02:19;;;;;;;9.70;5.20;;;;;16.10;101895.00;;;;10492156;28;20710;-73
2023/05/30 20:07:21;;;;;;;10.98;6.07;;;;;16.00;101908.00;;;;10489346;28;20292;-73
2023/05/30 20:12:23;;;;;;;12.18;5.82;;;;;15.90;101901.00;;;;10499468;28;20205;-73
2023/05/30 20:17:25;;;;;;;9.43;5.73;;;;;15.70;101909.00;;;;10499918;28;20198;-72
2023/05/30 20:22:27;;;;;;;11.32;6.03;;;;;15.60;101915.00;;;;10499063;28;20271;-73
2023/05/30 20:27:29;;;;;;;8.83;5.87;;;;;15.50;101919.00;;;;10497698;28;20205;-73
2023/05/30 20:32:32;;;;;;;11.37;6.47;;;;;15.40;101916.00;;;;10464291;28;20205;-73
2023/05/30 20:37:34;;;;;;;7.03;5.40;;;;;15.30;101926.00;;;;10465663;28;20335;-73
2023/05/30 20:42:36;;;;;;;7.00;5.50;;;;;15.30;101931.00;;;;10455651;28;20221;-77
2023/05/30 20:47:39;;;;;;;13.10;6.03;;;;;15.20;101930.00;;;;10467857;28;20200;-75
2023/05/30 20:52:41;;;;;;;6.17;5.20;;;;;15.10;101934.00;;;;10511896;28;20198;-79
2023/05/30 20:57:43;;;;;;;6.87;5.80;;;;;15.00;101933.00;;;;10502593;28;20197;-78
2023/05/30 21:02:45;;;;;;;7.97;5.97;;;;;14.90;101932.00;;;;10445806;28;20224;-77
2023/05/30 21:07:48;;;;;;;6.53;5.20;;;;;14.80;101930.00;;;;10525389;28;20666;-76
2023/05/30 21:12:50;;;;;;;5.87;5.27;;;;;14.80;101934.00;;;;10513212;28;20239;-77
2023/05/30 21:17:52;;;;;;;7.53;5.50;;;;;14.70;101933.00;;;;10460242;28;20206;-78
2023/05/30 21:22:54;;;;;;;9.33;6.17;;;;;14.60;101933.00;;;;10514503;28;20624;-75
2023/05/30 21:27:56;;;;;;;8.47;5.93;;;;;14.50;101930.00;;;;10507786;28;20197;-76
2023/05/30 21:32:58;;;;;;;7.27;6.07;;;;;14.40;101938.00;;;;10521759;28;20200;-76
2023/05/30 21:38:00;;;;;;;8.03;6.30;;;;;14.30;101939.00;;;;10498397;28;20204;-79
2023/05/30 21:43:02;;;;;;;10.80;6.10;;;;;14.20;101949.00;;;;10482316;28;20221;-81
2023/05/30 21:48:04;;;;;;;9.07;5.77;;;;;14.20;101949.00;;;;10499823;28;20239;-75
2023/05/30 21:53:07;;;;;;;9.73;5.90;;;;;14.10;101950.00;;;;10497325;28;20193;-75
2023/05/30 21:58:09;;;;;;;10.97;5.97;;;;;14.10;101961.00;;;;10541643;28;20669;-80
2023/05/30 22:03:12;;;;;;;6.77;5.57;;;;;14.00;101949.00;;;;10544440;28;20294;-75
2023/05/30 22:08:15;;;;;;;7.83;6.47;;;;;13.90;101958.00;;;;10539807;28;20280;-72
2023/05/30 22:13:17;;;;;;;6.67;5.97;;;;;13.90;101940.00;;;;10540129;28;20185;-75
2023/05/30 22:18:19;;;;;;;9.40;6.30;;;;;13.80;101944.00;;;;10543176;28;20197;-75
2023/05/30 22:23:22;;;;;;;8.27;5.43;;;;;13.80;101943.00;;;;10546672;28;20224;-80
2023/05/30 22:28:24;;;;;;;7.77;6.87;;;;;13.80;101962.00;;;;10546682;28;20215;-79
2023/05/30 22:33:26;;;;;;;8.93;5.87;;;;;13.80;101965.00;;;;10546849;28;20589;-75
2023/05/30 22:38:28;;;;;;;5.60;5.10;;;;;13.80;101965.00;;;;10547778;28;20227;-73
2023/05/30 22:43:30;;;;;;;6.50;5.90;;;;;13.70;101965.00;;;;10545999;28;20216;-74
2023/05/30 22:48:32;;;;;;;7.70;6.10;;;;;13.70;101959.00;;;;10536416;28;20312;-76
2023/05/30 22:53:35;;;;;;;5.97;5.40;;;;;13.60;101956.00;;;;10489057;28;20205;-72
2023/05/30 22:58:37;;;;;;;9.17;6.07;;;;;13.60;101963.00;;;;10467710;27;20766;-72
2023/05/30 23:03:39;;;;;;;7.13;6.43;;;;;13.60;101956.00;;;;10492900;28;20227;-73
2023/05/30 23:08:41;;;;;;;6.97;5.90;;;;;13.50;101965.00;;;;10486325;28;20616;-75
2023/05/30 23:13:43;;;;;;;7.37;6.30;;;;;13.50;101959.00;;;;10486483;27;20208;-75
2023/05/30 23:18:46;;;;;;;7.00;6.30;;;;;13.50;101961.00;;;;10512983;27;20281;-73
2023/05/30 23:23:48;;;;;;;6.00;5.30;;;;;13.40;101959.00;;;;10505152;28;20229;-74
2023/05/30 23:28:50;;;;;;;8.20;6.43;;;;;13.40;101943.00;;;;10481911;28;20256;-73
2023/05/30 23:33:52;;;;;;;8.53;6.17;;;;;13.40;101949.00;;;;10496533;28;20204;-72
2023/05/30 23:38:54;;;;;;;6.50;5.63;;;;;13.30;101945.00;;;;10491388;28;20198;-73
2023/05/30 23:43:56;;;;;;;7.67;6.27;;;;;13.30;101940.00;;;;10474176;28;20225;-73
2023/05/30 23:48:58;;;;;;;6.80;6.20;;;;;13.20;101938.00;;;;10398908;28;20449;-78
2023/05/30 23:54:00;;;;;;;6.57;5.70;;;;;13.20;101945.00;;;;10401929;28;21365;-76
2023/05/30 23:59:02;;;;;;;7.87;5.80;;;;;13.20;101951.00;;;;10404453;28;20210;-78
